createdAt,value
2018-11-14T00:00:50.235Z,16.82
2018-11-14T00:03:18.548Z,7.80
2018-11-14T00:05:46.810Z,12.95
2018-11-14T00:08:15.080Z,19.30
2018-11-14T00:10:43.373Z,15.83
2018-11-14T00:13:11.646Z,9.75
2018-11-14T00:15:39.996Z,10.18
2018-11-14T00:18:08.273Z,10.50
2018-11-14T00:20:36.543Z,13.57
2018-11-14T00:23:04.936Z,14.03
2018-11-14T00:25:33.224Z,14.30
2018-11-14T00:28:01.838Z,11.43
2018-11-14T00:30:29.799Z,10.80
2018-11-14T00:32:58.540Z,12.55
2018-11-14T00:35:26.869Z,14.95
2018-11-14T00:37:55.137Z,11.45
2018-11-14T00:40:23.439Z,13.25
2018-11-14T00:42:51.744Z,14.00
2018-11-14T00:45:21.200Z,15.30
2018-11-14T00:47:49.991Z,14.03
2018-11-14T00:50:18.911Z,12.63
2018-11-14T00:52:47.377Z,14.23
2018-11-14T00:55:22.499Z,12.53
2018-11-14T00:57:51.815Z,10.70
2018-11-14T01:00:21.403Z,13.93
2018-11-14T01:02:49.667Z,13.50
2018-11-14T01:05:18.706Z,12.13
2018-11-14T01:07:46.966Z,10.78
2018-11-14T01:10:16.587Z,13.53
2018-11-14T01:12:45.564Z,11.75
2018-11-14T01:15:15.904Z,12.35
2018-11-14T01:17:44.363Z,10.35
2018-11-14T01:20:16.544Z,13.07
2018-11-14T01:22:45.435Z,10.47
2018-11-14T01:25:14.913Z,14.78
2018-11-14T01:27:43.623Z,14.63
2018-11-14T01:30:16.199Z,8.88
2018-11-14T01:32:45.383Z,11.37
2018-11-14T01:35:14.103Z,9.67
2018-11-14T01:37:42.391Z,11.88
2018-11-14T01:40:13.996Z,15.25
2018-11-14T01:42:42.487Z,10.05
2018-11-14T01:45:11.356Z,12.23
2018-11-14T01:47:39.638Z,11.53
2018-11-14T01:50:09.299Z,11.38
2018-11-14T01:52:37.830Z,10.13
2018-11-14T01:55:07.187Z,14.00
2018-11-14T01:57:35.455Z,14.63
2018-11-14T02:00:03.772Z,12.15
2018-11-14T02:02:32.040Z,12.47
2018-11-14T02:05:00.402Z,9.53
2018-11-14T02:07:28.767Z,11.35
2018-11-14T02:09:57.043Z,10.72
2018-11-14T02:12:25.324Z,13.53
2018-11-14T02:14:53.724Z,15.75
2018-11-14T02:17:22.012Z,11.15
2018-11-14T02:19:50.299Z,12.40
2018-11-14T02:22:18.598Z,12.40
2018-11-14T02:24:46.866Z,10.93
2018-11-14T02:27:15.420Z,11.70
2018-11-14T02:29:43.694Z,8.33
2018-11-14T02:32:12.011Z,9.40
2018-11-14T02:34:40.368Z,11.20
2018-11-14T02:37:08.614Z,10.30
2018-11-14T02:39:36.883Z,14.70
2018-11-14T02:42:05.476Z,9.43
2018-11-14T02:44:33.758Z,13.35
2018-11-14T02:47:02.064Z,10.10
2018-11-14T02:49:30.350Z,11.75
2018-11-14T02:51:58.644Z,11.80
2018-11-14T02:54:26.926Z,10.75
2018-11-14T02:56:55.203Z,11.95
2018-11-14T02:59:23.447Z,14.63
2018-11-14T03:01:51.752Z,10.58
2018-11-14T03:04:20.015Z,9.83
2018-11-14T03:06:48.289Z,11.60
2018-11-14T03:09:16.864Z,11.65
2018-11-14T03:11:45.139Z,9.43
2018-11-14T03:14:13.452Z,16.62
2018-11-14T03:16:41.741Z,17.67
2018-11-14T03:19:10.009Z,10.43
2018-11-14T03:21:38.291Z,10.88
2018-11-14T03:24:06.819Z,10.90
2018-11-14T03:26:35.131Z,11.55
2018-11-14T03:29:03.416Z,14.15
2018-11-14T03:31:31.684Z,10.28
2018-11-14T03:33:59.966Z,14.37
2018-11-14T03:36:28.256Z,9.05
2018-11-14T03:38:56.564Z,9.80
2018-11-14T03:41:24.830Z,11.88
2018-11-14T03:43:53.208Z,12.43
2018-11-14T03:46:21.486Z,11.30
2018-11-14T03:48:49.771Z,16.17
2018-11-14T03:51:18.055Z,9.00
2018-11-14T03:53:46.332Z,9.35
2018-11-14T03:56:14.645Z,14.73
2018-11-14T03:58:42.926Z,12.35
2018-11-14T04:01:11.225Z,12.60
2018-11-14T04:03:39.523Z,10.25
2018-11-14T04:06:07.816Z,9.10
2018-11-14T04:08:36.127Z,7.85
2018-11-14T04:11:04.440Z,12.65
2018-11-14T04:13:32.731Z,12.55
2018-11-14T04:16:01.063Z,9.70
2018-11-14T04:18:29.352Z,9.18
2018-11-14T04:20:57.641Z,11.18
2018-11-14T04:23:25.935Z,8.98
2018-11-14T04:25:54.228Z,8.53
2018-11-14T04:28:22.491Z,8.63
2018-11-14T04:30:50.742Z,8.17
2018-11-14T04:33:19.032Z,10.18
2018-11-14T04:35:47.315Z,10.50
2018-11-14T04:38:15.630Z,8.70
2018-11-14T04:40:43.904Z,8.45
2018-11-14T04:43:12.214Z,8.70
2018-11-14T04:45:40.547Z,7.70
2018-11-14T04:48:08.912Z,11.03
2018-11-14T04:50:37.167Z,8.60
2018-11-14T04:53:05.755Z,9.80
2018-11-14T04:55:34.025Z,10.32
2018-11-14T04:58:02.418Z,10.43
2018-11-14T05:00:30.701Z,7.70
2018-11-14T05:02:58.984Z,9.83
2018-11-14T05:05:27.336Z,7.33
2018-11-14T05:07:55.627Z,5.10
2018-11-14T05:10:25.882Z,8.58
2018-11-14T05:12:54.271Z,10.80
2018-11-14T05:15:23.630Z,9.00
2018-11-14T05:17:52.479Z,7.15
2018-11-14T05:20:21.447Z,8.65
2018-11-14T05:22:50.123Z,9.60
2018-11-14T05:25:18.806Z,7.67
2018-11-14T05:27:47.084Z,9.33
2018-11-14T05:30:17.540Z,10.90
2018-11-14T05:32:46.910Z,13.03
2018-11-14T05:35:15.817Z,12.85
2018-11-14T05:37:44.299Z,12.05
2018-11-14T05:40:15.545Z,9.25
2018-11-14T05:42:44.330Z,13.13
2018-11-14T05:45:15.992Z,11.38
2018-11-14T05:47:44.688Z,11.08
2018-11-14T05:50:14.895Z,12.20
2018-11-14T05:52:43.208Z,10.38
2018-11-14T05:55:12.107Z,10.10
2018-11-14T05:57:40.381Z,9.03
2018-11-14T06:00:12.164Z,11.63
2018-11-14T06:02:40.479Z,16.62
2018-11-14T06:05:09.243Z,17.55
2018-11-14T06:07:37.774Z,12.35
2018-11-14T06:10:07.328Z,13.10
2018-11-14T06:12:35.635Z,12.90
2018-11-14T06:15:04.124Z,12.25
2018-11-14T06:17:32.363Z,12.93
2018-11-14T06:20:00.647Z,12.93
2018-11-14T06:22:28.926Z,13.35
2018-11-14T06:25:12.022Z,13.55
2018-11-14T06:27:40.299Z,9.78
2018-11-14T06:30:08.730Z,10.50
2018-11-14T06:32:36.999Z,10.70
2018-11-14T06:35:05.923Z,9.90
2018-11-14T06:37:34.312Z,8.83
2018-11-14T06:40:02.656Z,7.87
2018-11-14T06:42:30.970Z,8.73
2018-11-14T06:44:59.329Z,9.05
2018-11-14T06:47:27.586Z,8.80
2018-11-14T06:49:55.874Z,10.20
2018-11-14T06:52:24.130Z,9.60
2018-11-14T06:54:52.430Z,9.10
2018-11-14T06:57:20.776Z,7.87
2018-11-14T06:59:49.407Z,13.98
2018-11-14T07:02:17.639Z,14.25
2018-11-14T07:04:45.969Z,26.95
2018-11-14T07:07:14.221Z,31.37
2018-11-14T07:09:42.460Z,31.87
2018-11-14T07:12:10.746Z,15.50
2018-11-14T07:14:39.053Z,17.98
2018-11-14T07:17:07.364Z,15.93
2018-11-14T07:19:35.722Z,18.50
2018-11-14T07:22:03.984Z,10.13
2018-11-14T07:24:32.355Z,14.58
2018-11-14T07:27:00.673Z,12.18
2018-11-14T07:29:28.974Z,11.15
2018-11-14T07:31:57.297Z,9.45
2018-11-14T07:34:25.496Z,9.37
2018-11-14T07:36:53.765Z,9.40
2018-11-14T07:39:22.016Z,11.85
2018-11-14T07:41:50.303Z,9.28
2018-11-14T07:44:18.595Z,11.25
2018-11-14T07:46:46.866Z,11.48
2018-11-14T07:49:15.203Z,10.50
2018-11-14T07:51:43.417Z,11.78
2018-11-14T07:54:11.691Z,13.32
2018-11-14T07:56:40.002Z,11.48
2018-11-14T07:59:08.260Z,10.75
2018-11-14T08:01:36.564Z,7.62
2018-11-14T08:04:04.970Z,14.45
2018-11-14T08:06:33.228Z,12.30
2018-11-14T08:09:01.559Z,10.90
2018-11-14T08:11:29.827Z,10.48
2018-11-14T08:13:58.116Z,10.80
2018-11-14T08:16:26.379Z,13.60
2018-11-14T08:18:54.697Z,14.98
2018-11-14T08:21:22.933Z,13.93
2018-11-14T08:23:51.204Z,12.28
2018-11-14T08:26:19.627Z,14.35
2018-11-14T08:28:47.864Z,12.88
2018-11-14T08:31:16.139Z,15.80
2018-11-14T08:33:44.392Z,13.48
2018-11-14T08:36:12.688Z,16.17
2018-11-14T08:38:40.973Z,14.95
2018-11-14T08:41:09.257Z,13.93
2018-11-14T08:43:37.584Z,13.85
2018-11-14T08:46:06.516Z,17.55
2018-11-14T08:48:34.795Z,16.05
2018-11-14T08:51:03.083Z,16.82
2018-11-14T08:53:31.427Z,13.22
2018-11-14T08:55:59.726Z,14.87
2018-11-14T08:58:28.101Z,17.80
2018-11-14T09:00:56.403Z,15.60
2018-11-14T09:03:24.787Z,18.00
2018-11-14T09:05:53.148Z,14.63
2018-11-14T09:08:21.738Z,13.13
2018-11-14T09:10:50.097Z,16.80
2018-11-14T09:13:18.379Z,15.18
2018-11-14T09:15:46.732Z,13.60
2018-11-14T09:18:15.483Z,14.25
2018-11-14T09:20:43.796Z,11.73
2018-11-14T09:23:12.075Z,14.68
2018-11-14T09:25:40.330Z,10.58
2018-11-14T09:28:08.611Z,10.00
2018-11-14T09:30:36.875Z,16.25
2018-11-14T09:33:05.994Z,12.43
2018-11-14T09:35:34.258Z,16.07
2018-11-14T09:38:02.532Z,10.95
2018-11-14T09:40:31.195Z,16.55
2018-11-14T09:42:59.479Z,13.65
2018-11-14T09:45:28.986Z,11.55
2018-11-14T09:47:57.258Z,13.88
2018-11-14T09:50:27.596Z,13.88
2018-11-14T09:52:59.252Z,12.27
2018-11-14T09:55:27.600Z,14.95
2018-11-14T09:57:55.961Z,10.65
2018-11-14T10:00:25.486Z,12.25
2018-11-14T10:02:58.493Z,10.10
2018-11-14T10:05:26.844Z,9.68
2018-11-14T10:07:55.158Z,8.77
2018-11-14T10:10:23.841Z,13.23
2018-11-14T10:12:52.111Z,10.85
2018-11-14T10:15:21.617Z,12.18
2018-11-14T10:17:50.079Z,11.50
2018-11-14T10:20:19.698Z,10.23
2018-11-14T10:22:48.025Z,9.48
2018-11-14T10:25:17.222Z,14.15
2018-11-14T10:27:46.067Z,10.20
2018-11-14T10:30:16.696Z,13.70
2018-11-14T10:32:45.813Z,11.00
2018-11-14T10:35:14.091Z,10.23
2018-11-14T10:37:42.653Z,11.90
2018-11-14T10:40:13.490Z,13.30
2018-11-14T10:42:42.423Z,10.08
2018-11-14T10:45:12.391Z,10.68
2018-11-14T10:47:40.995Z,9.35
2018-11-14T10:50:12.779Z,10.93
2018-11-14T10:52:41.073Z,15.60
2018-11-14T10:55:12.838Z,16.00
2018-11-14T10:57:41.252Z,10.60
2018-11-14T11:00:19.943Z,11.12
2018-11-14T11:02:53.568Z,11.85
2018-11-14T11:06:30.945Z,10.20
2018-11-14T11:09:04.399Z,10.68
2018-11-14T11:11:37.994Z,10.17
2018-11-14T11:14:11.535Z,7.33
2018-11-14T11:16:45.275Z,7.80
2018-11-14T11:19:14.372Z,8.75
2018-11-14T11:21:43.302Z,6.87
2018-11-14T11:24:12.167Z,9.60
2018-11-14T11:26:40.412Z,7.53
2018-11-14T11:29:09.892Z,7.28
2018-11-14T11:31:38.303Z,10.82
2018-11-14T11:34:07.299Z,7.58
2018-11-14T11:36:35.653Z,7.15
2018-11-14T11:39:05.656Z,7.45
2018-11-14T11:41:33.942Z,5.92
2018-11-14T11:44:02.419Z,5.83
2018-11-14T11:46:30.694Z,4.85
2018-11-14T11:48:59.342Z,6.28
2018-11-14T11:51:27.590Z,7.50
2018-11-14T11:53:55.951Z,7.75
2018-11-14T11:56:24.216Z,10.60
2018-11-14T11:58:52.472Z,7.65
2018-11-14T12:01:20.780Z,8.83
2018-11-14T12:03:49.076Z,7.22
2018-11-14T12:06:17.431Z,7.15
2018-11-14T12:08:45.635Z,7.22
2018-11-14T12:11:13.912Z,6.47
2018-11-14T12:13:42.242Z,8.20
2018-11-14T12:16:10.495Z,5.03
2018-11-14T12:18:38.759Z,5.00
2018-11-14T12:21:07.272Z,9.67
2018-11-14T12:23:35.581Z,9.98
2018-11-14T12:26:03.915Z,8.13
2018-11-14T12:28:32.160Z,8.20
2018-11-14T12:31:00.531Z,6.03
2018-11-14T12:33:28.688Z,5.10
2018-11-14T12:35:56.964Z,7.58
2018-11-14T12:38:25.232Z,8.95
2018-11-14T12:40:53.506Z,5.92
2018-11-14T12:43:21.754Z,10.08
2018-11-14T12:45:50.037Z,4.10
2018-11-14T12:48:18.290Z,6.00
2018-11-14T12:50:46.605Z,8.10
2018-11-14T12:53:14.875Z,3.65
2018-11-14T12:55:43.172Z,5.50
2018-11-14T12:58:11.441Z,7.17
2018-11-14T13:00:39.727Z,8.07
2018-11-14T13:03:08.019Z,8.10
2018-11-14T13:05:36.299Z,9.23
2018-11-14T13:08:04.630Z,4.50
2018-11-14T13:10:32.981Z,7.62
2018-11-14T13:13:01.275Z,7.08
2018-11-14T13:15:29.542Z,6.72
2018-11-14T13:17:57.932Z,7.33
2018-11-14T13:20:26.289Z,5.67
2018-11-14T13:22:54.542Z,4.42
2018-11-14T13:25:22.855Z,8.68
2018-11-14T13:27:51.128Z,7.22
2018-11-14T13:30:20.731Z,6.72
2018-11-14T13:32:49.944Z,5.40
2018-11-14T13:35:19.325Z,5.47
2018-11-14T13:37:48.452Z,4.73
2018-11-14T13:40:16.804Z,8.33
2018-11-14T13:42:45.238Z,7.50
2018-11-14T13:45:14.759Z,9.18
2018-11-14T13:47:43.419Z,5.80
2018-11-14T13:50:14.023Z,7.10
2018-11-14T13:52:42.223Z,4.47
2018-11-14T13:55:12.172Z,6.55
2018-11-14T13:57:41.076Z,8.53
2018-11-14T14:00:11.171Z,8.25
2018-11-14T14:02:39.480Z,6.90
2018-11-14T14:05:09.779Z,8.43
2018-11-14T14:07:38.046Z,5.05
2018-11-14T14:10:07.438Z,6.65
2018-11-14T14:12:36.116Z,3.72
2018-11-14T14:15:04.863Z,4.03
2018-11-14T14:17:33.135Z,6.60
2018-11-14T14:20:01.439Z,3.97
2018-11-14T14:22:29.695Z,5.20
2018-11-14T14:24:57.943Z,5.50
2018-11-14T14:27:26.294Z,4.27
2018-11-14T14:29:54.628Z,6.08
2018-11-14T14:32:23.144Z,6.33
2018-11-14T14:34:51.452Z,5.37
2018-11-14T14:37:19.737Z,6.35
2018-11-14T14:39:48.034Z,7.58
2018-11-14T14:42:16.415Z,5.00
2018-11-14T14:44:44.727Z,4.55
2018-11-14T14:47:13.147Z,2.67
2018-11-14T14:49:41.438Z,4.97
2018-11-14T14:52:09.700Z,2.80
2018-11-14T14:54:37.962Z,5.60
2018-11-14T14:57:06.384Z,5.87
2018-11-14T14:59:34.668Z,3.33
2018-11-14T15:02:02.985Z,4.17
2018-11-14T15:04:31.284Z,6.62
2018-11-14T15:06:59.584Z,6.95
2018-11-14T15:09:28.120Z,5.83
2018-11-14T15:11:56.387Z,3.77
2018-11-14T15:14:24.674Z,5.25
2018-11-14T15:16:52.943Z,4.37
2018-11-14T15:19:21.214Z,5.40
2018-11-14T15:21:49.506Z,6.05
2018-11-14T15:24:18.012Z,6.92
2018-11-14T15:26:46.296Z,6.10
2018-11-14T15:29:14.567Z,22.40
2018-11-14T15:31:42.850Z,8.10
2018-11-14T15:34:11.128Z,6.87
2018-11-14T15:36:39.443Z,7.60
2018-11-14T15:39:09.401Z,6.72
2018-11-14T15:41:37.775Z,7.67
2018-11-14T15:44:06.181Z,10.93
2018-11-14T15:46:34.478Z,9.55
2018-11-14T15:49:02.752Z,6.60
2018-11-14T15:51:31.051Z,6.45
2018-11-14T15:53:59.310Z,8.98
2018-11-14T15:56:27.582Z,7.90
2018-11-14T15:58:55.866Z,8.10
2018-11-14T16:01:24.144Z,7.60
2018-11-14T16:03:52.415Z,9.18
2018-11-14T16:06:20.741Z,8.03
2018-11-14T16:08:48.971Z,8.28
2018-11-14T16:11:17.282Z,7.90
2018-11-14T16:13:49.717Z,7.67
2018-11-14T16:16:17.976Z,10.70
2018-11-14T16:18:46.253Z,7.63
2018-11-14T16:21:14.514Z,9.75
2018-11-14T16:23:42.799Z,11.45
2018-11-14T16:26:11.042Z,12.15
2018-11-14T16:28:39.320Z,12.25
2018-11-14T16:31:07.603Z,13.43
2018-11-14T16:33:35.890Z,14.53
2018-11-14T16:36:04.211Z,12.18
2018-11-14T16:38:32.501Z,15.13
2018-11-14T16:41:00.806Z,12.27
2018-11-14T16:43:29.084Z,12.97
2018-11-14T16:45:57.378Z,13.95
2018-11-14T16:48:25.654Z,14.95
2018-11-14T16:50:53.972Z,13.05
2018-11-14T16:53:22.316Z,18.73
2018-11-14T16:55:50.632Z,15.13
2018-11-14T16:58:18.901Z,18.05
2018-11-14T17:00:47.211Z,18.30
2018-11-14T17:03:15.490Z,19.60
2018-11-14T17:05:43.844Z,23.85
2018-11-14T17:08:12.106Z,30.60
2018-11-14T17:10:40.378Z,21.75
2018-11-14T17:13:08.669Z,20.43
2018-11-14T17:15:36.932Z,17.85
2018-11-14T17:18:05.591Z,22.43
2018-11-14T17:20:33.869Z,18.55
2018-11-14T17:23:02.131Z,22.93
2018-11-14T17:25:30.462Z,14.23
2018-11-14T17:27:58.695Z,9.35
2018-11-14T17:30:28.007Z,10.90
2018-11-14T17:32:56.465Z,15.53
2018-11-14T17:35:24.750Z,16.05
2018-11-14T17:37:53.035Z,12.33
2018-11-14T17:40:23.656Z,16.17
2018-11-14T17:42:52.556Z,13.78
2018-11-14T17:45:23.822Z,15.08
2018-11-14T17:47:52.486Z,15.10
2018-11-14T17:50:23.412Z,10.82
2018-11-14T17:52:52.728Z,12.85
2018-11-14T17:55:21.816Z,11.05
2018-11-14T17:57:50.043Z,10.65
2018-11-14T18:00:20.558Z,11.68
2018-11-14T18:02:48.861Z,13.50
2018-11-14T18:05:19.562Z,10.40
2018-11-14T18:07:48.511Z,12.50
2018-11-14T18:10:19.058Z,14.53
2018-11-14T18:12:48.274Z,20.30
2018-11-14T18:15:16.821Z,14.80
2018-11-14T18:17:45.423Z,15.95
2018-11-14T18:20:15.828Z,14.68
2018-11-14T18:22:44.863Z,14.13
2018-11-14T18:25:13.732Z,24.90
2018-11-14T18:27:42.032Z,26.45
2018-11-14T18:30:14.901Z,32.58
2018-11-14T18:32:43.172Z,23.73
2018-11-14T18:35:13.738Z,17.82
2018-11-14T18:37:42.714Z,13.58
2018-11-14T18:40:13.295Z,14.18
2018-11-14T18:42:41.903Z,12.40
2018-11-14T18:45:12.880Z,18.35
2018-11-14T18:47:41.430Z,13.62
2018-11-14T18:50:11.164Z,14.13
2018-11-14T18:52:39.487Z,14.10
2018-11-14T18:55:09.024Z,17.35
2018-11-14T18:57:37.433Z,13.57
2018-11-14T19:00:08.107Z,14.18
2018-11-14T19:02:36.387Z,12.85
2018-11-14T19:05:05.329Z,15.47
2018-11-14T19:07:33.649Z,15.05
2018-11-14T19:10:02.265Z,18.83
2018-11-14T19:12:30.611Z,15.10
2018-11-14T19:14:58.894Z,16.17
2018-11-14T19:17:27.161Z,17.87
2018-11-14T19:19:55.437Z,14.60
2018-11-14T19:22:23.715Z,19.75
2018-11-14T19:24:58.350Z,16.50
2018-11-14T19:27:26.645Z,16.00
2018-11-14T19:29:54.924Z,19.27
2018-11-14T19:32:23.208Z,19.52
2018-11-14T19:34:51.896Z,18.82
2018-11-14T19:37:20.192Z,16.32
2018-11-14T19:39:48.467Z,16.33
2018-11-14T19:42:16.723Z,20.00
2018-11-14T19:44:44.995Z,16.30
2018-11-14T19:47:13.283Z,44.05
2018-11-14T19:49:41.606Z,57.80
2018-11-14T19:52:09.882Z,93.55
2018-11-14T19:54:38.157Z,111.37
2018-11-14T19:57:07.018Z,82.70
2018-11-14T19:59:35.296Z,82.55
2018-11-14T20:02:03.555Z,58.90
2018-11-14T20:04:31.934Z,45.92
2018-11-14T20:07:00.223Z,51.92
2018-11-14T20:09:28.489Z,44.65
2018-11-14T20:11:56.767Z,34.38
2018-11-14T20:14:25.102Z,28.75
2018-11-14T20:16:53.383Z,33.28
2018-11-14T20:19:21.691Z,29.37
2018-11-14T20:21:49.956Z,29.48
2018-11-14T20:24:18.239Z,26.05
2018-11-14T20:26:46.808Z,23.77
2018-11-14T20:29:15.089Z,25.45
2018-11-14T20:31:43.475Z,30.45
2018-11-14T20:34:11.651Z,34.67
2018-11-14T20:36:39.955Z,26.25
2018-11-14T20:39:10.372Z,30.95
2018-11-14T20:41:38.671Z,30.80
2018-11-14T20:44:07.783Z,27.85
2018-11-14T20:46:36.147Z,27.35
2018-11-14T20:49:04.642Z,28.95
2018-11-14T20:51:32.883Z,29.50
2018-11-14T20:54:01.194Z,27.62
2018-11-14T20:56:29.560Z,24.95
2018-11-14T20:58:57.804Z,23.70
2018-11-14T21:01:26.078Z,24.23
2018-11-14T21:03:54.923Z,22.93
2018-11-14T21:06:23.280Z,28.98
2018-11-14T21:08:51.576Z,20.43
2018-11-14T21:11:19.864Z,20.90
2018-11-14T21:13:48.145Z,21.50
2018-11-14T21:16:16.451Z,21.40
2018-11-14T21:18:44.728Z,14.23
2018-11-14T21:21:13.004Z,17.55
2018-11-14T21:23:41.348Z,14.35
2018-11-14T21:26:09.568Z,14.37
2018-11-14T21:28:37.863Z,15.83
2018-11-14T21:31:06.186Z,14.83
2018-11-14T21:33:34.823Z,12.10
2018-11-14T21:36:03.100Z,15.83
2018-11-14T21:38:31.429Z,16.67
2018-11-14T21:40:59.631Z,17.20
2018-11-14T21:43:27.952Z,20.48
2018-11-14T21:45:56.194Z,17.30
2018-11-14T21:48:24.473Z,14.37
2018-11-14T21:50:53.615Z,20.60
2018-11-14T21:53:21.983Z,20.90
2018-11-14T21:55:50.216Z,16.85
2018-11-14T21:58:18.491Z,20.32
2018-11-14T22:00:46.773Z,24.50
2018-11-14T22:03:15.045Z,33.23
2018-11-14T22:05:43.334Z,20.92
2018-11-14T22:08:11.734Z,17.70
2018-11-14T22:10:40.031Z,16.17
2018-11-14T22:13:08.314Z,14.57
2018-11-14T22:15:36.564Z,13.18
2018-11-14T22:18:04.835Z,18.92
2018-11-14T22:20:33.107Z,16.87
2018-11-14T22:23:01.382Z,16.52
2018-11-14T22:25:30.323Z,16.45
2018-11-14T22:27:58.650Z,22.15
2018-11-14T22:30:31.148Z,20.93
2018-11-14T22:32:59.659Z,38.95
2018-11-14T22:35:29.694Z,24.05
2018-11-14T22:37:57.866Z,19.45
2018-11-14T22:40:27.448Z,19.35
2018-11-14T22:42:55.746Z,14.35
2018-11-14T22:45:31.780Z,11.33
2018-11-14T22:48:00.032Z,9.83
2018-11-14T22:50:28.566Z,16.05
2018-11-14T22:52:56.844Z,13.32
2018-11-14T22:55:25.800Z,12.50
2018-11-14T22:57:54.401Z,12.15
2018-11-14T23:00:31.839Z,15.80
2018-11-14T23:03:01.387Z,17.40
2018-11-14T23:05:29.684Z,13.98
2018-11-14T23:07:58.652Z,15.70
2018-11-14T23:10:27.331Z,14.18
2018-11-14T23:12:55.701Z,14.73
2018-11-14T23:15:24.435Z,14.10
2018-11-14T23:17:52.867Z,18.52
2018-11-14T23:20:21.271Z,17.40
2018-11-14T23:22:50.253Z,20.48
2018-11-14T23:25:19.042Z,23.42
2018-11-14T23:27:48.549Z,18.85
2018-11-14T23:30:17.727Z,16.50
2018-11-14T23:32:47.292Z,14.10
2018-11-14T23:35:16.856Z,16.65
2018-11-14T23:37:47.090Z,16.55
2018-11-14T23:40:15.383Z,18.70
2018-11-14T23:42:43.681Z,17.77
2018-11-14T23:45:13.992Z,20.27
2018-11-14T23:47:42.940Z,11.25
2018-11-14T23:50:16.016Z,12.25
2018-11-14T23:52:45.322Z,16.52
2018-11-14T23:55:14.026Z,15.37
2018-11-14T23:57:42.328Z,16.25
